createdAt,value
2023-02-27T00:01:28.088Z,6.05
2023-02-27T00:06:30.182Z,5.45
2023-02-27T00:11:32.241Z,4.63
2023-02-27T00:16:34.202Z,4.07
2023-02-27T00:21:36.972Z,6.40
2023-02-27T00:26:38.965Z,6.00
2023-02-27T00:31:40.905Z,4.90
2023-02-27T00:36:42.887Z,6.60
2023-02-27T00:41:44.756Z,5.30
2023-02-27T00:46:46.754Z,5.63
2023-02-27T00:51:48.635Z,6.00
2023-02-27T00:56:50.695Z,4.87
2023-02-27T01:01:52.553Z,5.28
2023-02-27T01:06:54.495Z,6.53
2023-02-27T01:11:56.512Z,5.78
2023-02-27T01:16:58.592Z,5.30
2023-02-27T01:22:00.419Z,6.75
2023-02-27T01:27:02.403Z,6.03
2023-02-27T01:32:04.428Z,3.93
2023-02-27T01:37:06.332Z,5.78
2023-02-27T01:42:22.432Z,6.90
2023-02-27T01:47:24.362Z,7.13
2023-02-27T01:52:26.301Z,5.20
2023-02-27T01:57:28.309Z,4.13
2023-02-27T02:02:33.574Z,6.75
2023-02-27T02:07:35.940Z,7.07
2023-02-27T02:12:37.917Z,6.22
2023-02-27T02:17:42.841Z,6.57
2023-02-27T02:22:59.635Z,7.40
2023-02-27T02:28:13.915Z,6.55
2023-02-27T02:33:27.557Z,6.57
2023-02-27T02:38:53.172Z,6.55
2023-02-27T02:44:01.050Z,6.80
2023-02-27T02:49:33.315Z,6.88
2023-02-27T02:54:44.445Z,7.50
2023-02-27T03:00:04.660Z,7.47
2023-02-27T03:05:11.201Z,8.65
2023-02-27T03:10:26.787Z,7.35
2023-02-27T03:15:38.259Z,7.40
2023-02-27T03:20:42.773Z,6.90
2023-02-27T03:25:44.672Z,6.95
2023-02-27T03:30:50.774Z,6.87
2023-02-27T03:36:20.245Z,7.18
2023-02-27T03:41:35.933Z,7.65
2023-02-27T03:46:37.969Z,7.60
2023-02-27T03:51:39.852Z,6.07
2023-02-27T03:56:53.221Z,8.47
2023-02-27T04:01:55.959Z,7.50
2023-02-27T04:07:01.095Z,7.80
2023-02-27T04:12:24.070Z,8.05
2023-02-27T04:17:28.061Z,8.95
2023-02-27T04:22:38.536Z,9.25
2023-02-27T04:27:58.223Z,8.77
2023-02-27T04:33:08.020Z,9.20
2023-02-27T04:38:29.262Z,9.90
2023-02-27T04:43:31.390Z,8.18
2023-02-27T04:48:36.716Z,10.25
2023-02-27T04:54:06.985Z,9.00
2023-02-27T04:59:11.105Z,10.30
2023-02-27T05:04:14.651Z,9.23
2023-02-27T05:09:33.511Z,7.75
2023-02-27T05:14:40.519Z,9.80
2023-02-27T05:19:42.384Z,9.90
2023-02-27T05:24:53.280Z,10.73
2023-02-27T05:30:26.278Z,8.88
2023-02-27T05:35:50.003Z,8.05
2023-02-27T05:40:54.253Z,9.23
2023-02-27T05:46:05.671Z,7.30
2023-02-27T05:51:07.441Z,9.88
2023-02-27T05:56:09.418Z,6.50
2023-02-27T06:01:11.579Z,10.02
2023-02-27T06:06:15.172Z,7.82
2023-02-27T06:11:16.947Z,8.43
2023-02-27T06:16:18.754Z,8.27
2023-02-27T06:21:20.550Z,8.53
2023-02-27T06:26:22.336Z,7.20
2023-02-27T06:31:24.102Z,5.33
2023-02-27T06:36:26.303Z,8.07
2023-02-27T06:41:28.321Z,9.45
2023-02-27T06:46:30.366Z,10.47
2023-02-27T06:51:32.364Z,7.22
2023-02-27T06:56:34.285Z,8.30
2023-02-27T07:01:36.127Z,8.20
2023-02-27T07:07:34.985Z,7.67
2023-02-27T07:11:59.686Z,6.88
2023-02-27T07:17:01.492Z,7.13
2023-02-27T07:22:03.335Z,7.90
2023-02-27T07:27:05.115Z,5.10
2023-02-27T07:32:06.937Z,7.03
2023-02-27T07:37:08.718Z,6.30
2023-02-27T07:42:10.609Z,6.80
2023-02-27T07:47:12.395Z,7.20
2023-02-27T07:52:14.214Z,8.57
2023-02-27T07:57:16.022Z,6.47
2023-02-27T08:02:17.794Z,6.30
2023-02-27T08:07:19.580Z,4.40
2023-02-27T08:12:21.363Z,5.23
2023-02-27T08:17:23.134Z,5.77
2023-02-27T08:22:24.943Z,4.03
2023-02-27T08:27:26.725Z,5.97
2023-02-27T08:32:28.838Z,7.30
2023-02-27T08:37:30.731Z,6.10
2023-02-27T08:42:32.803Z,5.60
2023-02-27T08:47:34.595Z,3.40
2023-02-27T08:52:36.392Z,5.40
2023-02-27T08:57:38.289Z,4.80
2023-02-27T09:02:40.463Z,5.63
2023-02-27T09:07:42.368Z,4.40
2023-02-27T09:12:44.284Z,4.50
2023-02-27T09:17:46.146Z,5.57
2023-02-27T09:22:47.917Z,4.53
2023-02-27T09:27:49.780Z,5.40
2023-02-27T09:32:51.652Z,4.43
2023-02-27T09:37:53.509Z,3.73
2023-02-27T09:43:02.929Z,4.07
2023-02-27T09:48:28.666Z,5.40
2023-02-27T09:53:41.291Z,4.47
2023-02-27T09:58:49.484Z,3.60
2023-02-27T10:03:51.191Z,5.30
2023-02-27T10:09:09.301Z,4.70
2023-02-27T10:14:13.894Z,4.30
2023-02-27T10:19:17.785Z,5.70
2023-02-27T10:24:33.700Z,5.05
2023-02-27T10:29:36.749Z,4.80
2023-02-27T10:34:39.597Z,5.20
2023-02-27T10:39:58.784Z,5.20
2023-02-27T10:45:00.566Z,4.57
2023-02-27T10:50:02.366Z,4.47
2023-02-27T10:55:17.832Z,4.88
2023-02-27T11:00:30.328Z,4.43
2023-02-27T11:05:33.509Z,6.67
2023-02-27T11:10:35.339Z,5.53
2023-02-27T11:15:38.248Z,4.33
2023-02-27T11:20:40.298Z,5.35
2023-02-27T11:25:42.494Z,5.03
2023-02-27T11:30:44.495Z,7.43
2023-02-27T11:35:51.051Z,6.38
2023-02-27T11:41:01.012Z,5.90
2023-02-27T11:46:34.739Z,5.60
2023-02-27T11:51:47.945Z,4.38
2023-02-27T11:56:56.852Z,5.07
2023-02-27T12:02:03.195Z,5.30
2023-02-27T12:07:23.489Z,4.30
2023-02-27T12:13:00.477Z,5.25
2023-02-27T12:18:11.107Z,4.22
2023-02-27T12:23:45.212Z,4.88
2023-02-27T12:33:55.709Z,4.75
2023-02-27T12:38:57.476Z,4.18
2023-02-27T12:44:14.355Z,6.13
2023-02-27T12:49:43.751Z,4.88
2023-02-27T12:54:56.339Z,5.22
2023-02-27T13:00:02.341Z,6.10
2023-02-27T13:05:20.886Z,5.55
2023-02-27T13:10:44.230Z,5.70
2023-02-27T13:15:57.433Z,6.35
2023-02-27T13:21:02.542Z,5.85
2023-02-27T13:26:08.255Z,6.35
2023-02-27T13:31:22.763Z,6.78
2023-02-27T13:36:36.574Z,9.05
2023-02-27T13:41:38.572Z,6.63
2023-02-27T13:46:40.403Z,7.43
2023-02-27T13:51:45.730Z,8.10
2023-02-27T13:56:51.257Z,7.75
2023-02-27T14:01:53.035Z,7.10
2023-02-27T14:07:00.034Z,10.13
2023-02-27T14:12:02.620Z,7.97
2023-02-27T14:22:11.886Z,8.30
2023-02-27T14:27:23.654Z,9.18
2023-02-27T14:32:33.447Z,7.55
2023-02-27T14:37:35.360Z,10.07
2023-02-27T14:42:52.738Z,6.60
2023-02-27T14:47:54.696Z,8.20
2023-02-27T14:52:56.546Z,7.03
2023-02-27T14:58:13.440Z,8.13
2023-02-27T15:03:44.565Z,5.90
2023-02-27T15:08:50.840Z,6.55
2023-02-27T15:14:03.299Z,5.50
2023-02-27T15:19:13.250Z,8.90
2023-02-27T15:24:28.618Z,7.15
2023-02-27T15:29:42.722Z,6.25
2023-02-27T15:39:47.028Z,6.93
2023-02-27T15:44:48.906Z,7.55
2023-02-27T15:50:06.387Z,7.00
2023-02-27T15:55:15.909Z,7.28
2023-02-27T16:00:18.689Z,7.60
2023-02-27T16:05:35.279Z,8.13
2023-02-27T16:10:41.576Z,10.63
2023-02-27T16:15:43.417Z,7.55
2023-02-27T16:20:51.290Z,5.43
2023-02-27T16:26:06.386Z,6.82
2023-02-27T16:31:33.819Z,6.53
2023-02-27T16:36:35.650Z,6.53
2023-02-27T16:41:37.445Z,7.93
2023-02-27T16:46:39.327Z,6.80
2023-02-27T16:51:41.221Z,7.23
2023-02-27T16:56:43.917Z,5.10
2023-02-27T17:01:46.137Z,7.22
2023-02-27T17:06:48.416Z,6.93
2023-02-27T17:11:50.576Z,7.30
2023-02-27T17:16:52.529Z,5.60
2023-02-27T17:21:54.437Z,6.45
2023-02-27T17:26:56.278Z,5.43
2023-02-27T17:31:58.755Z,6.53
2023-02-27T17:42:02.440Z,7.30
2023-02-27T17:47:04.322Z,6.23
2023-02-27T17:52:06.734Z,7.25
2023-02-27T17:57:08.625Z,7.65
2023-02-27T18:02:12.086Z,7.77
2023-02-27T18:07:13.928Z,6.93
2023-02-27T18:12:15.766Z,7.73
2023-02-27T18:17:17.645Z,6.13
2023-02-27T18:22:19.542Z,8.27
2023-02-27T18:27:21.845Z,7.43
2023-02-27T18:32:24.333Z,5.95
2023-02-27T18:42:27.985Z,7.15
2023-02-27T18:47:30.445Z,7.53
2023-02-27T18:52:32.683Z,6.78
2023-02-27T18:57:34.598Z,6.32
2023-02-27T19:02:36.479Z,6.88
2023-02-27T19:07:39.029Z,10.95
2023-02-27T19:12:41.899Z,7.40
2023-02-27T19:17:43.874Z,7.22
2023-02-27T19:22:45.861Z,7.72
2023-02-27T19:27:48.472Z,8.75
2023-02-27T19:32:50.522Z,7.13
2023-02-27T19:37:52.432Z,8.68
2023-02-27T19:42:54.344Z,6.68
2023-02-27T19:47:56.169Z,7.32
2023-02-27T19:52:58.127Z,5.07
2023-02-27T19:58:00.131Z,7.38
2023-02-27T20:03:01.951Z,6.78
2023-02-27T20:08:04.040Z,7.07
2023-02-27T20:13:06.019Z,7.57
2023-02-27T20:18:07.896Z,7.40
2023-02-27T20:23:09.770Z,7.30
2023-02-27T20:28:11.594Z,7.53
2023-02-27T20:33:13.608Z,7.75
2023-02-27T20:38:15.662Z,7.43
2023-02-27T20:43:17.526Z,7.95
2023-02-27T20:48:19.808Z,5.88
2023-02-27T20:53:21.658Z,8.05
2023-02-27T20:58:23.583Z,9.15
2023-02-27T21:03:26.338Z,7.68
2023-02-27T21:08:29.482Z,7.78
2023-02-27T21:13:31.486Z,7.72
2023-02-27T21:18:33.792Z,7.55
2023-02-27T21:23:35.878Z,6.72
2023-02-27T21:28:37.860Z,8.57
2023-02-27T21:33:39.949Z,8.90
2023-02-27T21:38:41.842Z,10.25
2023-02-27T21:43:43.688Z,8.23
2023-02-27T21:48:45.653Z,7.00
2023-02-27T21:53:47.596Z,11.75
2023-02-27T21:58:49.586Z,7.82
2023-02-27T22:03:52.579Z,8.57
2023-02-27T22:08:58.403Z,7.93
2023-02-27T22:14:00.446Z,8.63
2023-02-27T22:19:10.016Z,9.05
2023-02-27T22:24:11.917Z,8.75
2023-02-27T22:29:13.890Z,8.95
2023-02-27T22:34:17.493Z,8.55
2023-02-27T22:39:19.845Z,7.35
2023-02-27T22:49:23.718Z,8.77
2023-02-27T22:54:25.579Z,8.73
2023-02-27T22:59:27.499Z,6.07
2023-02-27T23:04:29.428Z,7.05
2023-02-27T23:09:31.364Z,7.95
2023-02-27T23:14:33.418Z,11.18
2023-02-27T23:19:35.360Z,9.07
2023-02-27T23:24:38.623Z,8.68
2023-02-27T23:29:40.516Z,10.82
2023-02-27T23:34:49.319Z,8.52
2023-02-27T23:39:51.695Z,8.07
2023-02-27T23:44:53.599Z,9.45
2023-02-27T23:49:55.532Z,10.73
2023-02-27T23:54:57.521Z,9.63
2023-02-27T23:59:59.487Z,8.70
